Time;durP1;ratioP1;P1;durP2;ratioP2;P2;SDS_P1;SDS_P2;PMS_P1;PMS_P2;Temp;Humidity;BMP_temperature;BMP_pressure;BME280_temperature;BME280_humidity;BME280_pressure;Samples;Min_cycle;Max_cycle;Signal;HPM_P1;HPM_P2
2024/03/01 00:01:56;;;;;;;;;;;8.60;99.90;;;;;;5079266;28;20418;-83
2024/03/01 00:04:22;;;;;;;;;;;8.60;99.90;;;;;;5080742;28;20290;-83
2024/03/01 00:06:47;;;;;;;;;;;8.60;99.90;;;;;;5081578;28;20006;-85
2024/03/01 00:09:13;;;;;;;;;;;8.70;99.90;;;;;;5076136;28;19912;-83
2024/03/01 00:11:38;;;;;;;;;;;8.60;99.90;;;;;;5065622;28;19925;-83
2024/03/01 00:14:04;;;;;;;;;;;8.70;99.90;;;;;;5064396;28;19909;-83
2024/03/01 00:16:30;;;;;;;;;;;8.70;99.90;;;;;;5067750;28;19908;-82
2024/03/01 00:18:55;;;;;;;;;;;8.70;99.90;;;;;;5081092;28;19939;-82
2024/03/01 00:21:21;;;;;;;;;;;8.80;99.90;;;;;;5071497;28;19912;-82
2024/03/01 00:23:46;;;;;;;;;;;8.80;99.90;;;;;;5069098;28;19920;-80
2024/03/01 00:26:13;;;;;;;;;;;8.80;1.00;;;;;;5070245;28;19982;-82
2024/03/01 00:28:39;;;;;;;;;;;8.90;99.90;;;;;;5070972;28;20019;-82
2024/03/01 00:31:04;;;;;;;;;;;8.90;1.00;;;;;;5067000;28;20003;-80
2024/03/01 00:33:31;;;;;;;;;;;8.90;1.00;;;;;;5067130;28;19919;-82
2024/03/01 00:35:56;;;;;;;;;;;8.90;1.00;;;;;;5066591;28;20038;-82
2024/03/01 00:38:22;;;;;;;;;;;8.90;1.00;;;;;;5073094;28;19952;-82
2024/03/01 00:40:47;;;;;;;;;;;8.90;1.00;;;;;;5073227;28;20435;-83
2024/03/01 00:43:13;;;;;;;;;;;8.90;1.00;;;;;;5073543;28;19943;-84
2024/03/01 00:45:38;;;;;;;;;;;8.90;1.00;;;;;;5071197;28;19913;-83
2024/03/01 00:48:08;;;;;;;;;;;8.90;1.00;;;;;;5075017;28;19919;-83
2024/03/01 00:50:33;;;;;;;;;;;8.90;1.00;;;;;;5077667;28;19924;-82
2024/03/01 00:52:59;;;;;;;;;;;8.90;1.00;;;;;;5068837;28;19913;-83
2024/03/01 00:55:24;;;;;;;;;;;8.80;48.70;;;;;;5070643;28;19917;-82
2024/03/01 00:57:50;;;;;;;;;;;8.80;99.90;;;;;;5075591;28;20400;-83
2024/03/01 01:00:16;;;;;;;;;;;8.70;99.90;;;;;;5070188;28;19935;-83
2024/03/01 01:02:42;;;;;;;;;;;8.70;99.90;;;;;;5073506;28;19966;-83
2024/03/01 01:05:08;;;;;;;;;;;8.60;99.90;;;;;;5079873;28;20251;-83
2024/03/01 01:07:33;;;;;;;;;;;8.60;99.90;;;;;;5079768;28;19919;-82
2024/03/01 01:09:59;;;;;;;;;;;8.60;99.90;;;;;;5071142;28;19923;-85
2024/03/01 01:12:24;;;;;;;;;;;8.60;99.90;;;;;;5066511;28;19912;-83
2024/03/01 01:14:49;;;;;;;;;;;8.60;99.90;;;;;;5077027;28;19920;-81
2024/03/01 01:17:15;;;;;;;;;;;8.60;1.00;;;;;;5076018;28;19919;-84
2024/03/01 01:19:40;;;;;;;;;;;8.60;1.00;;;;;;5066522;28;19913;-82
2024/03/01 01:22:06;;;;;;;;;;;8.60;1.00;;;;;;5067435;28;19912;-84
2024/03/01 01:24:32;;;;;;;;;;;8.70;1.00;;;;;;5065006;28;19916;-83
2024/03/01 01:26:57;;;;;;;;;;;8.70;1.00;;;;;;5076874;28;20318;-84
2024/03/01 01:29:23;;;;;;;;;;;8.60;1.00;;;;;;5077735;28;19912;-83
2024/03/01 01:31:48;;;;;;;;;;;8.60;1.00;;;;;;5075708;28;19922;-82
2024/03/01 01:34:14;;;;;;;;;;;8.60;1.00;;;;;;5074254;28;20336;-81
2024/03/01 01:36:40;;;;;;;;;;;8.60;99.90;;;;;;5073862;28;20007;-84
2024/03/01 01:39:05;;;;;;;;;;;8.60;99.90;;;;;;5073712;28;19912;-83
2024/03/01 01:41:32;;;;;;;;;;;8.50;99.90;;;;;;5066472;28;19962;-83
2024/03/01 01:43:58;;;;;;;;;;;8.50;1.00;;;;;;5069012;28;19967;-84
2024/03/01 01:46:23;;;;;;;;;;;8.50;99.90;;;;;;5075922;28;20298;-85
2024/03/01 01:48:49;;;;;;;;;;;8.50;99.90;;;;;;5079823;28;19944;-83
2024/03/01 01:51:14;;;;;;;;;;;8.40;1.00;;;;;;5069593;28;19960;-84
2024/03/01 01:53:41;;;;;;;;;;;8.40;1.00;;;;;;5075799;28;19912;-82
2024/03/01 01:56:06;;;;;;;;;;;8.40;99.90;;;;;;5072880;28;20440;-85
2024/03/01 01:58:33;;;;;;;;;;;8.40;1.00;;;;;;5072208;28;19916;-85
2024/03/01 02:00:59;;;;;;;;;;;8.40;1.00;;;;;;5063154;28;19925;-85
2024/03/01 02:03:27;;;;;;;;;;;8.30;99.90;;;;;;5067272;28;19935;-84
2024/03/01 02:05:53;;;;;;;;;;;8.30;1.00;;;;;;5075842;28;19916;-84
2024/03/01 02:08:18;;;;;;;;;;;8.30;1.00;;;;;;5068995;28;19966;-84
2024/03/01 02:10:45;;;;;;;;;;;8.30;1.00;;;;;;5070881;28;19979;-85
2024/03/01 02:13:17;;;;;;;;;;;8.30;1.00;;;;;;5074266;28;19947;-84
2024/03/01 02:15:42;;;;;;;;;;;8.40;17.20;;;;;;5068628;28;19912;-85
2024/03/01 02:18:07;;;;;;;;;;;8.40;99.90;;;;;;5069115;28;19920;-84
2024/03/01 02:20:35;;;;;;;;;;;8.50;1.00;;;;;;5063065;28;20015;-85
2024/03/01 02:23:01;;;;;;;;;;;8.50;1.00;;;;;;5072556;28;20299;-85
2024/03/01 02:25:27;;;;;;;;;;;8.50;1.00;;;;;;5073405;28;19928;-85
2024/03/01 02:27:52;;;;;;;;;;;8.60;1.00;;;;;;5079629;28;19916;-84
2024/03/01 02:30:18;;;;;;;;;;;8.60;99.90;;;;;;5085235;28;19950;-81
2024/03/01 02:32:43;;;;;;;;;;;8.60;99.90;;;;;;5072943;28;20290;-84
2024/03/01 02:35:09;;;;;;;;;;;8.50;99.90;;;;;;5076318;28;20301;-84
2024/03/01 02:37:34;;;;;;;;;;;8.50;99.90;;;;;;5077004;28;19920;-84
2024/03/01 02:40:00;;;;;;;;;;;8.50;91.20;;;;;;5073058;28;20279;-84
2024/03/01 02:42:25;;;;;;;;;;;8.50;15.70;;;;;;5077931;28;19921;-84
2024/03/01 02:44:50;;;;;;;;;;;8.40;96.00;;;;;;5076807;28;19916;-83
2024/03/01 02:47:16;;;;;;;;;;;8.40;99.90;;;;;;5072865;28;20003;-83
2024/03/01 02:49:41;;;;;;;;;;;8.40;99.90;;;;;;5066359;28;19971;-83
2024/03/01 02:52:07;;;;;;;;;;;8.40;99.90;;;;;;5070822;28;19928;-82
2024/03/01 02:54:32;;;;;;;;;;;8.40;1.00;;;;;;5067749;28;19931;-83
2024/03/01 02:56:58;;;;;;;;;;;8.40;1.00;;;;;;5076306;28;19912;-84
2024/03/01 02:59:24;;;;;;;;;;;8.40;1.00;;;;;;5069464;28;20027;-83
2024/03/01 03:01:50;;;;;;;;;;;8.40;1.00;;;;;;5067835;28;19924;-83
2024/03/01 03:04:16;;;;;;;;;;;8.40;1.00;;;;;;5073917;28;19952;-83
2024/03/01 03:06:41;;;;;;;;;;;8.40;1.00;;;;;;5069601;28;19935;-83
2024/03/01 03:09:09;;;;;;;;;;;8.30;1.00;;;;;;5070462;28;19920;-83
2024/03/01 03:11:35;;;;;;;;;;;8.30;1.00;;;;;;5074881;28;19939;-83
2024/03/01 03:14:02;;;;;;;;;;;8.20;1.00;;;;;;5079002;28;19920;-83
2024/03/01 03:16:27;;;;;;;;;;;8.20;32.80;;;;;;5067926;28;20349;-83
2024/03/01 03:18:53;;;;;;;;;;;8.20;83.70;;;;;;5072654;28;19913;-83
2024/03/01 03:21:18;;;;;;;;;;;8.20;99.90;;;;;;5063119;28;19912;-83
2024/03/01 03:23:45;;;;;;;;;;;8.10;99.90;;;;;;5069411;28;19935;-83
2024/03/01 03:26:10;;;;;;;;;;;8.20;99.90;;;;;;5064079;28;20383;-83
2024/03/01 03:28:36;;;;;;;;;;;8.20;99.90;;;;;;5073528;28;20035;-83
2024/03/01 03:31:01;;;;;;;;;;;8.10;99.90;;;;;;5073323;28;20305;-83
2024/03/01 03:33:27;;;;;;;;;;;8.00;99.90;;;;;;5069540;28;19916;-83
2024/03/01 03:35:52;;;;;;;;;;;8.00;99.90;;;;;;5073194;28;20003;-84
2024/03/01 03:38:18;;;;;;;;;;;8.00;99.90;;;;;;5073472;28;19912;-83
2024/03/01 03:40:44;;;;;;;;;;;8.00;99.90;;;;;;5067548;28;19912;-83
2024/03/01 03:43:10;;;;;;;;;;;7.90;99.90;;;;;;5061529;28;19917;-83
2024/03/01 03:45:36;;;;;;;;;;;7.90;99.90;;;;;;5070491;28;19982;-83
2024/03/01 03:48:01;;;;;;;;;;;7.90;99.90;;;;;;5070788;28;19923;-83
2024/03/01 03:50:27;;;;;;;;;;;7.90;99.90;;;;;;5072019;28;20492;-83
2024/03/01 03:52:52;;;;;;;;;;;7.90;99.90;;;;;;5061133;28;19912;-83
2024/03/01 03:55:18;;;;;;;;;;;7.90;99.90;;;;;;5071360;28;19939;-83
2024/03/01 03:57:43;;;;;;;;;;;7.90;99.90;;;;;;5065490;28;19912;-84
2024/03/01 04:00:09;;;;;;;;;;;7.90;99.90;;;;;;5073944;28;19921;-82
2024/03/01 04:02:35;;;;;;;;;;;7.80;99.90;;;;;;5066969;28;19913;-82
2024/03/01 04:05:01;;;;;;;;;;;7.80;99.90;;;;;;5077127;28;19913;-84
2024/03/01 04:07:29;;;;;;;;;;;7.80;99.90;;;;;;5070249;28;19913;-83
2024/03/01 04:09:55;;;;;;;;;;;7.80;99.90;;;;;;5079265;28;19920;-82
2024/03/01 04:12:20;;;;;;;;;;;7.80;1.00;;;;;;5071339;28;19934;-84
2024/03/01 04:14:46;;;;;;;;;;;7.80;1.00;;;;;;5072317;28;20497;-84
2024/03/01 04:17:11;;;;;;;;;;;7.80;1.00;;;;;;5077745;28;19917;-84
2024/03/01 04:19:37;;;;;;;;;;;7.80;1.00;;;;;;5078415;28;20298;-83
2024/03/01 04:22:03;;;;;;;;;;;7.90;1.00;;;;;;5075809;28;19948;-84
2024/03/01 04:24:29;;;;;;;;;;;7.90;1.00;;;;;;5069034;28;20344;-83
2024/03/01 04:26:55;;;;;;;;;;;8.00;1.00;;;;;;5076339;28;19912;-82
2024/03/01 04:29:20;;;;;;;;;;;8.00;1.00;;;;;;5076630;28;19934;-83
2024/03/01 04:31:48;;;;;;;;;;;8.10;1.00;;;;;;5076500;28;20011;-83
2024/03/01 04:34:18;;;;;;;;;;;8.20;1.00;;;;;;5075619;28;19935;-83
2024/03/01 04:36:43;;;;;;;;;;;8.20;1.00;;;;;;5062009;28;19913;-84
2024/03/01 04:39:09;;;;;;;;;;;8.20;1.00;;;;;;5068785;28;19916;-84
2024/03/01 04:41:35;;;;;;;;;;;8.30;1.00;;;;;;5077031;28;20382;-83
2024/03/01 04:44:01;;;;;;;;;;;8.30;1.00;;;;;;5061691;28;19943;-83
2024/03/01 04:46:27;;;;;;;;;;;8.30;1.00;;;;;;5067518;28;19920;-84
2024/03/01 04:48:52;;;;;;;;;;;8.40;1.00;;;;;;5077586;28;19920;-84
2024/03/01 04:51:20;;;;;;;;;;;8.50;1.00;;;;;;5070604;28;19916;-84
2024/03/01 04:53:46;;;;;;;;;;;8.60;1.00;;;;;;5068952;28;19914;-83
2024/03/01 04:56:11;;;;;;;;;;;8.70;1.00;;;;;;5074693;28;19912;-81
2024/03/01 04:58:37;;;;;;;;;;;8.80;1.00;;;;;;5073064;28;20022;-84
2024/03/01 05:01:02;;;;;;;;;;;8.90;1.00;;;;;;5078396;28;20267;-83
2024/03/01 05:03:31;;;;;;;;;;;9.00;1.00;;;;;;5078009;28;19919;-84
2024/03/01 05:05:56;;;;;;;;;;;9.00;1.00;;;;;;5069454;28;19913;-84
2024/03/01 05:08:22;;;;;;;;;;;9.10;1.00;;;;;;5076803;28;19949;-84
2024/03/01 05:10:49;;;;;;;;;;;9.10;1.00;;;;;;5070160;28;19917;-82
2024/03/01 05:13:15;;;;;;;;;;;9.10;1.00;;;;;;5076314;28;20436;-84
2024/03/01 05:15:41;;;;;;;;;;;9.10;1.00;;;;;;5079962;28;20049;-82
2024/03/01 05:18:06;;;;;;;;;;;9.00;1.00;;;;;;5069784;28;20566;-84
2024/03/01 05:20:32;;;;;;;;;;;9.00;1.00;;;;;;5067399;28;19920;-85
2024/03/01 05:22:57;;;;;;;;;;;9.00;1.00;;;;;;5073547;28;19935;-83
2024/03/01 05:25:23;;;;;;;;;;;8.90;1.00;;;;;;5078911;28;19980;-84
2024/03/01 05:27:49;;;;;;;;;;;8.90;1.00;;;;;;5079200;28;19920;-84
2024/03/01 05:30:21;;;;;;;;;;;8.80;1.00;;;;;;5078196;28;19916;-84
2024/03/01 05:32:48;;;;;;;;;;;8.80;1.00;;;;;;5072429;28;19913;-85
2024/03/01 05:35:14;;;;;;;;;;;8.70;1.00;;;;;;5076771;28;19962;-83
2024/03/01 05:37:41;;;;;;;;;;;8.70;1.00;;;;;;5068311;28;19990;-83
2024/03/01 05:40:10;;;;;;;;;;;8.60;1.00;;;;;;5075440;28;19971;-84
2024/03/01 05:42:39;;;;;;;;;;;8.60;1.00;;;;;;5078881;28;20290;-84
2024/03/01 05:45:07;;;;;;;;;;;8.50;1.00;;;;;;5070803;28;19916;-85
2024/03/01 05:47:36;;;;;;;;;;;8.50;1.00;;;;;;5078968;28;19912;-85
2024/03/01 05:50:03;;;;;;;;;;;8.50;1.00;;;;;;5080125;28;19916;-84
2024/03/01 05:52:28;;;;;;;;;;;8.40;1.00;;;;;;5069871;28;20374;-84
2024/03/01 05:54:54;;;;;;;;;;;8.40;1.00;;;;;;5074962;28;19917;-85
2024/03/01 05:57:19;;;;;;;;;;;8.40;1.00;;;;;;5080511;28;19934;-84
2024/03/01 05:59:45;;;;;;;;;;;8.30;1.00;;;;;;5076800;28;19913;-84
2024/03/01 06:02:10;;;;;;;;;;;8.30;1.00;;;;;;5077582;28;19955;-84
2024/03/01 06:04:36;;;;;;;;;;;8.30;1.00;;;;;;5091103;28;19919;-85
2024/03/01 06:07:01;;;;;;;;;;;8.20;1.00;;;;;;5082636;28;19928;-84
2024/03/01 06:09:26;;;;;;;;;;;8.20;1.00;;;;;;5077345;28;20007;-83
2024/03/01 06:11:52;;;;;;;;;;;8.10;1.00;;;;;;5075057;28;19924;-84
2024/03/01 06:14:18;;;;;;;;;;;8.10;1.00;;;;;;5072656;28;19955;-83
2024/03/01 06:16:43;;;;;;;;;;;8.10;1.00;;;;;;5074655;28;19916;-83
2024/03/01 06:19:09;;;;;;;;;;;8.10;1.00;;;;;;5076861;28;20038;-84
2024/03/01 06:21:34;;;;;;;;;;;8.00;1.00;;;;;;5069519;28;20295;-83
2024/03/01 06:24:00;;;;;;;;;;;8.00;1.00;;;;;;5071491;28;19912;-80
2024/03/01 06:26:25;;;;;;;;;;;8.00;1.00;;;;;;5066618;28;19920;-83
2024/03/01 06:28:51;;;;;;;;;;;8.00;1.00;;;;;;5065078;28;19913;-85
2024/03/01 06:31:17;;;;;;;;;;;8.00;1.00;;;;;;5068919;28;19912;-83
2024/03/01 06:33:42;;;;;;;;;;;8.00;1.00;;;;;;5071589;28;19974;-84
2024/03/01 06:36:10;;;;;;;;;;;8.00;1.00;;;;;;5058963;28;19944;-83
2024/03/01 06:38:36;;;;;;;;;;;8.00;1.00;;;;;;5058769;28;19909;-83
2024/03/01 06:41:02;;;;;;;;;;;8.10;1.00;;;;;;5058951;28;20057;-84
2024/03/01 06:43:29;;;;;;;;;;;8.00;1.00;;;;;;5084483;28;19935;-82
2024/03/01 06:45:54;;;;;;;;;;;8.00;1.00;;;;;;5068639;28;19909;-81
2024/03/01 06:48:21;;;;;;;;;;;8.10;1.00;;;;;;5065189;28;19913;-84
2024/03/01 06:50:46;;;;;;;;;;;8.10;1.00;;;;;;5061079;28;19958;-83
2024/03/01 06:53:12;;;;;;;;;;;8.10;1.00;;;;;;5070233;28;19909;-83
2024/03/01 06:55:38;;;;;;;;;;;8.10;1.00;;;;;;5057983;28;19977;-84
2024/03/01 06:58:03;;;;;;;;;;;8.10;1.00;;;;;;5061911;28;19913;-83
2024/03/01 07:00:30;;;;;;;;;;;8.20;1.00;;;;;;5068781;28;19916;-83
2024/03/01 07:02:56;;;;;;;;;;;8.30;1.00;;;;;;5063825;28;19919;-83
2024/03/01 07:05:21;;;;;;;;;;;8.40;1.00;;;;;;5065941;28;19920;-83
2024/03/01 07:07:47;;;;;;;;;;;8.50;1.00;;;;;;5070070;28;19916;-83
2024/03/01 07:10:12;;;;;;;;;;;8.60;1.00;;;;;;5064185;28;19916;-83
2024/03/01 07:12:38;;;;;;;;;;;8.60;1.00;;;;;;5071272;28;19913;-84
2024/03/01 07:15:07;;;;;;;;;;;8.70;99.90;;;;;;5062307;28;20335;-84
2024/03/01 07:17:32;;;;;;;;;;;8.80;99.90;;;;;;5069993;28;19913;-84
2024/03/01 07:19:58;;;;;;;;;;;8.90;99.90;;;;;;5078462;28;19919;-84
2024/03/01 07:22:24;;;;;;;;;;;8.90;99.90;;;;;;5076276;28;20004;-80
2024/03/01 07:24:49;;;;;;;;;;;9.00;99.90;;;;;;5071283;28;19913;-83
2024/03/01 07:27:15;;;;;;;;;;;9.00;99.90;;;;;;5075440;28;19913;-85
2024/03/01 07:29:40;;;;;;;;;;;9.10;99.90;;;;;;5077263;28;20293;-85
2024/03/01 07:32:06;;;;;;;;;;;9.10;1.00;;;;;;5075114;28;19923;-82
2024/03/01 07:34:32;;;;;;;;;;;9.20;99.90;;;;;;5064526;28;19920;-83
2024/03/01 07:36:58;;;;;;;;;;;9.10;1.00;;;;;;5065536;28;20006;-84
2024/03/01 07:39:23;;;;;;;;;;;9.10;99.90;;;;;;5076618;28;19916;-83
2024/03/01 07:41:49;;;;;;;;;;;9.10;1.00;;;;;;5076305;28;19923;-83
2024/03/01 07:44:14;;;;;;;;;;;9.00;1.00;;;;;;5072017;28;19939;-84
2024/03/01 07:46:40;;;;;;;;;;;9.00;37.60;;;;;;5075561;28;20357;-84
2024/03/01 07:49:05;;;;;;;;;;;9.10;1.00;;;;;;5071174;28;19983;-85
2024/03/01 07:51:31;;;;;;;;;;;9.20;1.00;;;;;;5073284;28;20412;-84
2024/03/01 07:53:56;;;;;;;;;;;9.50;1.00;;;;;;5069150;28;19917;-84
2024/03/01 07:56:23;;;;;;;;;;;10.40;1.00;;;;;;5075777;28;19983;-84
2024/03/01 07:58:54;;;;;;;;;;;10.90;99.90;;;;;;5076510;28;20274;-84
2024/03/01 08:01:20;;;;;;;;;;;11.20;99.90;;;;;;5073483;28;20324;-83
2024/03/01 08:03:47;;;;;;;;;;;11.20;1.00;;;;;;5065206;28;19966;-82
2024/03/01 08:06:12;;;;;;;;;;;11.00;1.00;;;;;;5075356;28;19916;-84
2024/03/01 08:08:43;;;;;;;;;;;10.60;1.00;;;;;;5076323;28;19996;-84
2024/03/01 08:11:09;;;;;;;;;;;10.30;1.00;;;;;;5066204;28;19962;-85
2024/03/01 08:13:35;;;;;;;;;;;10.10;1.00;;;;;;5075999;28;19955;-82
2024/03/01 08:16:02;;;;;;;;;;;9.90;1.00;;;;;;5072506;28;20409;-83
2024/03/01 08:18:27;;;;;;;;;;;9.90;1.00;;;;;;5068750;28;20341;-83
2024/03/01 08:21:03;;;;;;;;;;;9.80;24.90;;;;;;5073362;28;19913;-84
2024/03/01 08:23:31;;;;;;;;;;;9.70;1.00;;;;;;5062182;28;19962;-86
2024/03/01 08:25:57;;;;;;;;;;;9.70;1.00;;;;;;5066996;28;19999;-83
2024/03/01 08:28:30;;;;;;;;;;;9.60;1.00;;;;;;5060472;28;19936;-83
2024/03/01 08:30:55;;;;;;;;;;;9.60;1.00;;;;;;5069482;28;20006;-85
2024/03/01 08:33:21;;;;;;;;;;;9.50;1.00;;;;;;5075674;28;20461;-82
2024/03/01 08:35:47;;;;;;;;;;;9.50;1.00;;;;;;5070732;28;19913;-83
2024/03/01 08:38:31;;;;;;;;;;;9.40;1.00;;;;;;5072222;28;20337;-83
2024/03/01 08:40:57;;;;;;;;;;;9.50;1.00;;;;;;5072816;28;19920;-84
2024/03/01 08:43:23;;;;;;;;;;;9.60;1.00;;;;;;5076726;28;20290;-84
2024/03/01 08:45:48;;;;;;;;;;;9.70;1.00;;;;;;5069956;28;20416;-83
2024/03/01 08:48:19;;;;;;;;;;;9.90;1.00;;;;;;5075583;28;19909;-85
2024/03/01 08:50:47;;;;;;;;;;;10.10;1.00;;;;;;5074142;28;19952;-83
2024/03/01 08:53:32;;;;;;;;;;;10.10;99.90;;;;;;5072459;28;19909;-84
2024/03/01 08:55:57;;;;;;;;;;;10.10;99.90;;;;;;5067671;28;19963;-84
2024/03/01 08:58:23;;;;;;;;;;;10.00;99.90;;;;;;5076913;28;19913;-83
2024/03/01 09:00:50;;;;;;;;;;;10.00;99.90;;;;;;5076009;28;19995;-83
2024/03/01 09:03:20;;;;;;;;;;;10.00;99.90;;;;;;5070225;28;19947;-82
2024/03/01 09:05:46;;;;;;;;;;;9.90;99.90;;;;;;5073771;28;19916;-84
2024/03/01 09:08:18;;;;;;;;;;;9.90;99.90;;;;;;5076254;28;19923;-85
2024/03/01 09:10:44;;;;;;;;;;;10.10;99.90;;;;;;5077176;28;19916;-83
2024/03/01 09:13:13;;;;;;;;;;;10.40;99.90;;;;;;5075576;28;19912;-83
2024/03/01 09:15:39;;;;;;;;;;;10.50;99.90;;;;;;5077091;28;19916;-83
2024/03/01 09:18:24;;;;;;;;;;;10.70;99.90;;;;;;5075896;28;19919;-84
2024/03/01 09:20:49;;;;;;;;;;;11.10;99.90;;;;;;5087499;28;19944;-84
2024/03/01 09:23:15;;;;;;;;;;;11.30;99.90;;;;;;5072844;28;19983;-85
2024/03/01 09:25:40;;;;;;;;;;;11.40;21.60;;;;;;5074977;28;19948;-84
2024/03/01 09:28:06;;;;;;;;;;;11.40;1.00;;;;;;5074221;28;19912;-84
2024/03/01 09:30:31;;;;;;;;;;;11.40;1.00;;;;;;5069404;28;19920;-85
2024/03/01 09:32:57;;;;;;;;;;;11.30;1.00;;;;;;5070781;28;20290;-84
2024/03/01 09:35:23;;;;;;;;;;;11.20;1.00;;;;;;5064707;28;19973;-85
2024/03/01 09:37:49;;;;;;;;;;;11.00;1.00;;;;;;5070159;28;20383;-83
2024/03/01 09:40:47;;;;;;;;;;;10.90;26.10;;;;;;5068064;28;19924;-85
2024/03/01 09:43:15;;;;;;;;;;;10.90;99.90;;;;;;5044241;28;19913;-84
2024/03/01 09:45:46;;;;;;;;;;;11.00;21.10;;;;;;5066162;28;19919;-85
2024/03/01 09:48:24;;;;;;;;;;;11.20;1.00;;;;;;5070275;28;19920;-84
2024/03/01 09:50:56;;;;;;;;;;;11.40;1.00;;;;;;5067562;28;19920;-83
2024/03/01 09:53:37;;;;;;;;;;;11.40;1.00;;;;;;5073224;28;19916;-84
2024/03/01 09:56:09;;;;;;;;;;;11.40;1.00;;;;;;5071666;28;19986;-84
2024/03/01 09:58:46;;;;;;;;;;;11.30;1.00;;;;;;5062879;28;19920;-84
2024/03/01 10:01:23;;;;;;;;;;;11.20;1.00;;;;;;5070427;28;19913;-84
2024/03/01 10:03:54;;;;;;;;;;;11.10;1.00;;;;;;5072767;28;19958;-84
2024/03/01 10:06:20;;;;;;;;;;;11.10;1.00;;;;;;5074181;28;19919;-84
2024/03/01 10:08:48;;;;;;;;;;;11.20;1.00;;;;;;5078363;28;19916;-84
2024/03/01 10:11:26;;;;;;;;;;;11.40;1.00;;;;;;5079510;28;19917;-85
2024/03/01 10:13:52;;;;;;;;;;;11.70;1.00;;;;;;5078603;28;19912;-83
2024/03/01 10:16:24;;;;;;;;;;;12.20;1.00;;;;;;5074267;28;19912;-84
2024/03/01 10:18:56;;;;;;;;;;;12.40;1.00;;;;;;5068131;28;19913;-84
2024/03/01 10:21:37;;;;;;;;;;;12.60;1.00;;;;;;5075888;28;19920;-85
2024/03/01 10:24:02;;;;;;;;;;;12.70;1.00;;;;;;5074333;28;19958;-84
2024/03/01 10:26:28;;;;;;;;;;;12.80;1.00;;;;;;5070248;28;19916;-85
2024/03/01 10:28:57;;;;;;;;;;;12.80;1.00;;;;;;5074410;28;20025;-84
2024/03/01 10:31:29;;;;;;;;;;;13.40;99.90;;;;;;5069602;28;20307;-85
2024/03/01 10:34:15;;;;;;;;;;;14.00;99.90;;;;;;5069769;28;20278;-84
2024/03/01 10:36:45;;;;;;;;;;;14.80;99.90;;;;;;5066660;28;19921;-83
2024/03/01 10:39:28;;;;;;;;;;;14.90;99.90;;;;;;5067945;28;19917;-83
2024/03/01 10:42:09;;;;;;;;;;;14.60;99.90;;;;;;5068448;28;19999;-83
2024/03/01 10:44:51;;;;;;;;;;;14.80;99.90;;;;;;5072726;28;19958;-84
2024/03/01 10:47:22;;;;;;;;;;;15.10;99.90;;;;;;5066358;28;20398;-84
2024/03/01 10:49:56;;;;;;;;;;;14.90;99.90;;;;;;5072480;28;19912;-85
2024/03/01 10:52:23;;;;;;;;;;;14.60;99.90;;;;;;5068242;28;20000;-84
2024/03/01 10:54:51;;;;;;;;;;;14.40;99.90;;;;;;5066958;28;19923;-83
2024/03/01 10:57:19;;;;;;;;;;;14.40;99.90;;;;;;5072262;28;20267;-86
2024/03/01 10:59:50;;;;;;;;;;;15.10;99.90;;;;;;5076140;28;20443;-85
2024/03/01 11:02:35;;;;;;;;;;;16.80;99.90;;;;;;5073283;28;19913;-84
2024/03/01 11:05:06;;;;;;;;;;;18.40;99.90;;;;;;5066982;28;20372;-83
2024/03/01 11:07:32;;;;;;;;;;;20.30;99.90;;;;;;5066283;28;19921;-83
2024/03/01 11:10:02;;;;;;;;;;;21.20;99.90;;;;;;5067504;28;19917;-84
2024/03/01 11:12:40;;;;;;;;;;;21.80;99.90;;;;;;5063452;28;19916;-84
2024/03/01 11:15:11;;;;;;;;;;;21.50;99.90;;;;;;5067944;28;19958;-83
2024/03/01 11:17:37;;;;;;;;;;;21.90;99.90;;;;;;5060985;28;20442;-86
2024/03/01 11:20:10;;;;;;;;;;;22.50;99.90;;;;;;5082480;28;19916;-84
2024/03/01 11:22:39;;;;;;;;;;;22.70;99.90;;;;;;5065911;28;19970;-84
2024/03/01 11:25:08;;;;;;;;;;;22.40;99.90;;;;;;5068150;28;19920;-84
2024/03/01 11:27:39;;;;;;;;;;;22.20;99.90;;;;;;5058407;28;19962;-85
2024/03/01 11:30:05;;;;;;;;;;;21.50;99.90;;;;;;5053673;28;20066;-84
2024/03/01 11:32:34;;;;;;;;;;;21.00;99.90;;;;;;5059456;28;19974;-84
2024/03/01 11:34:59;;;;;;;;;;;20.70;99.90;;;;;;5073163;28;19944;-83
2024/03/01 11:37:38;;;;;;;;;;;20.50;99.90;;;;;;5066185;28;20389;-84
2024/03/01 11:40:11;;;;;;;;;;;20.40;99.90;;;;;;5068372;28;19917;-82
2024/03/01 11:42:42;;;;;;;;;;;20.30;99.90;;;;;;5075083;28;19951;-85
2024/03/01 11:45:08;;;;;;;;;;;20.30;99.90;;;;;;5077083;28;19970;-84
2024/03/01 11:47:52;;;;;;;;;;;20.40;99.90;;;;;;5078648;28;20373;-85
2024/03/01 11:50:26;;;;;;;;;;;20.50;99.90;;;;;;5069519;28;19920;-84
2024/03/01 11:53:11;;;;;;;;;;;20.50;99.90;;;;;;5071795;28;20352;-85
2024/03/01 11:55:49;;;;;;;;;;;20.60;99.90;;;;;;5075411;28;19921;-85
2024/03/01 11:58:27;;;;;;;;;;;20.70;99.90;;;;;;5074385;28;19928;-84
2024/03/01 12:01:03;;;;;;;;;;;20.80;99.90;;;;;;5074756;28;19965;-84
2024/03/01 12:03:46;;;;;;;;;;;21.00;99.90;;;;;;5074019;28;19912;-86
2024/03/01 12:06:31;;;;;;;;;;;21.00;99.90;;;;;;5073871;28;19917;-84
2024/03/01 12:09:03;;;;;;;;;;;20.90;99.90;;;;;;5070061;28;20007;-84
2024/03/01 12:11:46;;;;;;;;;;;21.00;99.90;;;;;;5074955;28;20378;-84
2024/03/01 12:14:16;;;;;;;;;;;21.10;99.90;;;;;;5072427;28;19916;-85
2024/03/01 12:16:50;;;;;;;;;;;21.30;99.90;;;;;;5074936;28;19920;-83
2024/03/01 12:19:17;;;;;;;;;;;21.80;99.90;;;;;;5070167;28;20353;-84
2024/03/01 12:21:54;;;;;;;;;;;22.10;99.90;;;;;;5064199;28;19917;-85
2024/03/01 12:24:21;;;;;;;;;;;22.30;99.90;;;;;;5072073;28;20289;-85
2024/03/01 12:27:06;;;;;;;;;;;22.70;99.90;;;;;;5061840;28;19913;-84
2024/03/01 12:29:34;;;;;;;;;;;22.70;99.90;;;;;;5070888;28;20370;-84
2024/03/01 12:32:12;;;;;;;;;;;22.70;99.90;;;;;;5062418;28;19939;-85
2024/03/01 12:34:43;;;;;;;;;;;22.50;99.90;;;;;;5070248;28;20003;-83
2024/03/01 12:37:25;;;;;;;;;;;22.20;99.90;;;;;;5071241;28;19912;-84
2024/03/01 12:40:04;;;;;;;;;;;22.00;99.90;;;;;;5066129;28;20023;-87
2024/03/01 12:42:32;;;;;;;;;;;22.10;99.90;;;;;;5070171;28;19921;-86
2024/03/01 12:45:08;;;;;;;;;;;22.00;99.90;;;;;;5061802;28;19913;-85
2024/03/01 12:47:39;;;;;;;;;;;21.90;99.90;;;;;;5068620;28;19913;-86
2024/03/01 12:50:15;;;;;;;;;;;21.90;99.90;;;;;;5069570;28;20021;-86
2024/03/01 12:52:44;;;;;;;;;;;21.80;99.90;;;;;;5059869;28;19921;-85
2024/03/01 12:55:21;;;;;;;;;;;21.40;99.90;;;;;;5068036;28;19924;-83
2024/03/01 12:58:04;;;;;;;;;;;20.80;99.90;;;;;;5072525;28;20002;-83
2024/03/01 13:00:33;;;;;;;;;;;20.10;99.90;;;;;;5071120;28;20393;-84
2024/03/01 13:03:07;;;;;;;;;;;19.50;99.90;;;;;;5074119;28;20022;-84
2024/03/01 13:05:39;;;;;;;;;;;19.00;99.90;;;;;;5064618;28;19917;-87
2024/03/01 13:08:10;;;;;;;;;;;18.60;99.90;;;;;;5063469;28;19920;-86
2024/03/01 13:10:37;;;;;;;;;;;18.20;99.90;;;;;;5072492;28;19981;-84
2024/03/01 13:13:05;;;;;;;;;;;17.70;99.90;;;;;;5085327;28;19917;-86
2024/03/01 13:15:46;;;;;;;;;;;17.20;99.90;;;;;;5070519;28;19948;-84
2024/03/01 13:18:12;;;;;;;;;;;16.60;99.90;;;;;;5084537;28;20352;-85
2024/03/01 13:20:44;;;;;;;;;;;16.20;99.90;;;;;;5067513;28;20007;-84
2024/03/01 13:23:34;;;;;;;;;;;15.80;99.90;;;;;;5069529;28;19948;-84
2024/03/01 13:26:01;;;;;;;;;;;15.40;99.90;;;;;;5068615;28;19965;-84
2024/03/01 13:28:29;;;;;;;;;;;15.10;99.90;;;;;;5075908;28;20328;-85
2024/03/01 13:30:59;;;;;;;;;;;15.00;99.90;;;;;;5073799;28;19934;-84
2024/03/01 13:33:34;;;;;;;;;;;14.90;99.90;;;;;;5065339;28;19954;-83
2024/03/01 13:36:10;;;;;;;;;;;14.90;99.90;;;;;;5061841;28;19909;-84
2024/03/01 13:38:43;;;;;;;;;;;14.80;99.90;;;;;;5066118;28;19967;-84
2024/03/01 13:41:16;;;;;;;;;;;14.80;99.90;;;;;;5071794;28;20345;-84
2024/03/01 13:43:46;;;;;;;;;;;14.80;99.90;;;;;;5069014;28;20035;-83
2024/03/01 13:46:41;;;;;;;;;;;14.80;99.90;;;;;;5061706;28;20371;-82
2024/03/01 13:49:10;;;;;;;;;;;14.90;99.90;;;;;;5047522;28;20378;-85
2024/03/01 13:51:39;;;;;;;;;;;14.90;99.90;;;;;;5061018;28;19921;-83
2024/03/01 13:54:08;;;;;;;;;;;14.90;99.90;;;;;;5077928;28;20175;-85
2024/03/01 13:56:35;;;;;;;;;;;14.90;99.90;;;;;;5073725;28;19999;-84
2024/03/01 13:59:02;;;;;;;;;;;14.80;99.90;;;;;;5062279;28;19968;-83
2024/03/01 14:01:29;;;;;;;;;;;14.80;99.90;;;;;;5069977;28;19908;-84
2024/03/01 14:03:56;;;;;;;;;;;14.90;99.90;;;;;;5070213;28;19913;-83
2024/03/01 14:06:22;;;;;;;;;;;15.10;99.90;;;;;;5061841;28;19944;-83
2024/03/01 14:08:51;;;;;;;;;;;15.10;99.90;;;;;;5070648;28;19916;-84
2024/03/01 14:11:17;;;;;;;;;;;15.20;99.90;;;;;;5072149;28;19912;-83
2024/03/01 14:13:47;;;;;;;;;;;15.30;99.90;;;;;;5065876;28;20336;-83
2024/03/01 14:16:12;;;;;;;;;;;15.30;99.90;;;;;;5074894;28;19916;-83
2024/03/01 14:18:38;;;;;;;;;;;15.10;99.90;;;;;;5070147;28;19917;-83
2024/03/01 14:21:04;;;;;;;;;;;15.10;99.90;;;;;;5063992;28;19908;-83
2024/03/01 14:23:29;;;;;;;;;;;15.00;99.90;;;;;;5069809;28;20335;-82
2024/03/01 14:25:55;;;;;;;;;;;15.00;99.90;;;;;;5054379;28;19908;-84
2024/03/01 14:28:20;;;;;;;;;;;15.30;99.90;;;;;;5054146;28;19913;-84
2024/03/01 14:30:46;;;;;;;;;;;15.60;99.90;;;;;;5069678;28;19912;-83
2024/03/01 14:33:13;;;;;;;;;;;15.80;99.90;;;;;;5058400;28;19913;-83
2024/03/01 14:35:39;;;;;;;;;;;15.90;99.90;;;;;;5064469;28;19909;-83
2024/03/01 14:38:12;;;;;;;;;;;15.80;99.90;;;;;;5073921;28;19931;-85